Time;durP1;ratioP1;P1;durP2;ratioP2;P2;SDS_P1;SDS_P2;PMS_P1;PMS_P2;Temp;Humidity;BMP_temperature;BMP_pressure;BME280_temperature;BME280_humidity;BME280_pressure;Samples;Min_cycle;Max_cycle;Signal;HPM_P1;HPM_P2
2024/02/02 00:01:09;;;;;;;11.47;4.20;;;5.70;99.90;;;;;;5075806;28;20499;-71
2024/02/02 00:03:34;;;;;;;18.27;5.07;;;5.70;99.90;;;;;;5075662;28;20196;-71
2024/02/02 00:06:00;;;;;;;12.50;4.70;;;5.70;99.90;;;;;;5075557;28;20183;-71
2024/02/02 00:08:26;;;;;;;13.10;4.57;;;5.60;99.90;;;;;;5075323;28;20716;-71
2024/02/02 00:10:52;;;;;;;11.83;4.17;;;5.60;99.90;;;;;;5075092;28;20167;-71
2024/02/02 00:13:17;;;;;;;9.57;4.37;;;5.60;99.90;;;;;;5074990;28;20167;-71
2024/02/02 00:15:43;;;;;;;9.50;3.50;;;5.60;99.90;;;;;;5074866;28;20182;-70
2024/02/02 00:18:08;;;;;;;15.33;4.90;;;5.70;99.90;;;;;;5075048;28;20223;-71
2024/02/02 00:20:34;;;;;;;9.10;4.50;;;5.60;99.90;;;;;;5074748;28;20235;-70
2024/02/02 00:23:01;;;;;;;10.57;3.43;;;5.60;99.90;;;;;;5074777;28;20167;-70
2024/02/02 00:25:26;;;;;;;6.70;3.93;;;5.60;99.90;;;;;;5074713;28;20185;-71
2024/02/02 00:27:52;;;;;;;9.30;4.67;;;5.60;99.90;;;;;;5073102;28;20912;-71
2024/02/02 00:30:18;;;;;;;13.63;4.00;;;5.60;99.90;;;;;;5074644;28;20173;-71
2024/02/02 00:32:44;;;;;;;24.13;5.33;;;5.60;99.90;;;;;;5074489;28;20166;-71
2024/02/02 00:35:13;;;;;;;13.23;3.60;;;5.50;99.90;;;;;;5074544;28;20511;-71
2024/02/02 00:37:39;;;;;;;11.50;4.60;;;5.50;99.90;;;;;;5072936;28;20590;-70
2024/02/02 00:40:06;;;;;;;9.93;3.50;;;5.60;99.90;;;;;;5074350;28;20415;-70
2024/02/02 00:42:32;;;;;;;8.53;3.67;;;5.50;99.90;;;;;;5074186;28;20738;-71
2024/02/02 00:44:59;;;;;;;13.93;3.97;;;5.40;99.90;;;;;;5074338;28;20469;-71
2024/02/02 00:47:25;;;;;;;18.97;4.93;;;5.40;99.90;;;;;;5073959;28;20190;-71
2024/02/02 00:49:51;;;;;;;18.40;4.33;;;5.40;99.90;;;;;;5074009;28;20431;-71
2024/02/02 00:52:17;;;;;;;7.53;4.50;;;5.40;99.90;;;;;;5073956;28;20178;-71
2024/02/02 00:54:42;;;;;;;7.97;3.90;;;5.30;99.90;;;;;;5072763;28;20170;-71
2024/02/02 00:57:08;;;;;;;23.93;4.67;;;5.30;99.90;;;;;;5073835;28;20404;-71
2024/02/02 00:59:33;;;;;;;15.30;4.70;;;5.30;99.90;;;;;;5073985;28;20171;-71
2024/02/02 01:01:59;;;;;;;11.13;4.07;;;5.30;99.90;;;;;;5073860;28;20229;-71
2024/02/02 01:04:24;;;;;;;14.57;4.43;;;5.40;99.90;;;;;;5073978;28;20212;-71
2024/02/02 01:06:50;;;;;;;11.53;4.60;;;5.40;99.90;;;;;;5073056;28;20186;-71
2024/02/02 01:09:15;;;;;;;8.70;4.27;;;5.40;99.90;;;;;;5074035;28;20190;-71
2024/02/02 01:11:41;;;;;;;11.63;3.30;;;5.40;99.90;;;;;;5072665;28;20178;-70
2024/02/02 01:14:07;;;;;;;5.43;3.47;;;5.40;99.90;;;;;;5073883;28;20166;-71
2024/02/02 01:16:32;;;;;;;8.27;4.20;;;5.40;99.90;;;;;;5073796;28;20236;-71
2024/02/02 01:18:58;;;;;;;17.57;4.23;;;5.40;99.90;;;;;;5073414;28;20170;-71
2024/02/02 01:21:24;;;;;;;8.10;4.03;;;5.40;99.90;;;;;;5073489;28;20736;-71
2024/02/02 01:23:49;;;;;;;4.67;2.97;;;5.40;99.90;;;;;;5073699;28;20181;-71
2024/02/02 01:26:15;;;;;;;9.83;4.30;;;5.50;99.90;;;;;;5073476;28;20688;-71
2024/02/02 01:28:40;;;;;;;16.40;4.57;;;5.50;99.90;;;;;;5073346;28;20528;-71
2024/02/02 01:31:06;;;;;;;13.97;3.87;;;5.50;99.90;;;;;;5073476;28;20623;-71
2024/02/02 01:33:31;;;;;;;6.60;3.10;;;5.50;99.90;;;;;;5073451;28;20541;-71
2024/02/02 01:35:57;;;;;;;7.83;3.27;;;5.60;99.90;;;;;;5073276;28;20644;-71
2024/02/02 01:38:23;;;;;;;8.57;3.50;;;5.60;99.90;;;;;;5073145;28;20177;-71
2024/02/02 01:40:49;;;;;;;7.70;3.57;;;5.70;99.90;;;;;;5072050;28;20448;-71
2024/02/02 01:43:14;;;;;;;28.97;3.73;;;5.70;99.90;;;;;;5073321;28;20182;-71
2024/02/02 01:45:40;;;;;;;10.23;3.90;;;5.60;99.90;;;;;;5073105;28;20261;-71
2024/02/02 01:48:07;;;;;;;12.57;4.10;;;5.60;99.90;;;;;;5072912;28;20177;-71
2024/02/02 01:50:33;;;;;;;5.40;3.10;;;5.70;99.90;;;;;;5073137;28;20166;-71
2024/02/02 01:52:59;;;;;;;7.67;4.00;;;5.70;99.90;;;;;;5072825;28;20431;-71
2024/02/02 01:55:26;;;;;;;15.30;4.60;;;5.70;99.90;;;;;;5072896;28;20425;-71
2024/02/02 01:57:51;;;;;;;11.83;4.60;;;5.80;99.90;;;;;;5072776;28;20416;-71
2024/02/02 02:00:17;;;;;;;15.60;3.63;;;5.80;99.90;;;;;;5072816;28;20440;-71
2024/02/02 02:02:43;;;;;;;6.87;3.90;;;5.80;99.90;;;;;;5072888;28;20158;-71
2024/02/02 02:05:09;;;;;;;23.47;3.97;;;5.90;99.90;;;;;;5071281;28;20201;-71
2024/02/02 02:07:35;;;;;;;14.40;3.33;;;5.90;99.90;;;;;;5072590;28;20256;-71
2024/02/02 02:10:03;;;;;;;14.03;3.83;;;5.90;99.90;;;;;;5072634;28;20436;-71
2024/02/02 02:12:29;;;;;;;4.30;3.40;;;5.90;99.90;;;;;;5072804;28;20162;-71
2024/02/02 02:14:54;;;;;;;14.80;5.07;;;5.90;99.90;;;;;;5072348;28;20427;-71
2024/02/02 02:17:20;;;;;;;10.43;4.17;;;5.90;99.90;;;;;;5072391;28;20231;-72
2024/02/02 02:19:49;;;;;;;9.03;4.63;;;5.90;99.90;;;;;;5072466;28;20166;-72
2024/02/02 02:22:14;;;;;;;10.83;4.57;;;5.90;99.90;;;;;;5072473;28;20194;-72
2024/02/02 02:24:40;;;;;;;9.37;3.80;;;5.80;99.90;;;;;;5072368;28;20408;-72
2024/02/02 02:27:06;;;;;;;10.57;4.40;;;5.80;99.90;;;;;;5072161;28;20166;-72
2024/02/02 02:29:31;;;;;;;10.70;4.13;;;5.90;99.90;;;;;;5072230;28;20209;-72
2024/02/02 02:31:57;;;;;;;17.10;4.30;;;5.90;99.90;;;;;;5070959;28;20174;-72
2024/02/02 02:34:26;;;;;;;8.20;3.87;;;5.90;99.90;;;;;;5072261;28;20665;-72
2024/02/02 02:36:52;;;;;;;8.17;4.37;;;5.90;99.90;;;;;;5072226;28;20193;-72
2024/02/02 02:39:18;;;;;;;18.83;4.60;;;6.00;99.90;;;;;;5071948;28;20435;-72
2024/02/02 02:41:43;;;;;;;12.73;4.70;;;6.10;99.90;;;;;;5072105;28;20480;-72
2024/02/02 02:44:09;;;;;;;8.93;3.50;;;6.10;99.90;;;;;;5072146;28;20164;-72
2024/02/02 02:46:35;;;;;;;13.07;3.83;;;6.00;99.90;;;;;;5072067;28;20530;-72
2024/02/02 02:49:00;;;;;;;12.30;4.10;;;6.10;99.90;;;;;;5071820;28;20199;-72
2024/02/02 02:51:26;;;;;;;6.10;3.07;;;6.20;99.90;;;;;;5072058;28;20200;-72
2024/02/02 02:53:51;;;;;;;12.63;3.27;;;6.20;99.90;;;;;;5071833;28;20186;-72
2024/02/02 02:56:17;;;;;;;16.30;2.97;;;6.20;99.90;;;;;;5071966;28;20221;-72
2024/02/02 02:58:42;;;;;;;6.17;3.17;;;6.20;99.90;;;;;;5071841;28;20167;-72
2024/02/02 03:01:08;;;;;;;14.73;4.30;;;6.30;99.90;;;;;;5071893;28;20193;-72
2024/02/02 03:03:33;;;;;;;11.83;4.20;;;6.30;99.90;;;;;;5071975;28;20236;-72
2024/02/02 03:05:59;;;;;;;9.53;2.90;;;6.30;99.90;;;;;;5071896;28;20209;-72
2024/02/02 03:08:24;;;;;;;9.00;3.70;;;6.40;99.90;;;;;;5070348;28;20323;-72
2024/02/02 03:10:50;;;;;;;10.40;3.37;;;6.50;99.90;;;;;;5071870;28;20528;-72
2024/02/02 03:13:15;;;;;;;12.10;3.77;;;6.50;99.90;;;;;;5071662;28;20252;-72
2024/02/02 03:15:42;;;;;;;5.97;2.87;;;6.40;99.90;;;;;;5071386;28;20182;-72
2024/02/02 03:18:09;;;;;;;12.67;4.20;;;6.50;99.90;;;;;;5071519;28;20249;-72
2024/02/02 03:20:35;;;;;;;11.00;4.27;;;6.60;99.90;;;;;;5071763;28;20976;-72
2024/02/02 03:23:01;;;;;;;10.10;3.90;;;6.60;99.90;;;;;;5071686;28;20389;-72
2024/02/02 03:25:26;;;;;;;9.13;3.87;;;6.60;99.90;;;;;;5071737;28;20208;-72
2024/02/02 03:27:52;;;;;;;5.80;4.10;;;6.60;99.90;;;;;;5071531;28;20166;-72
2024/02/02 03:30:18;;;;;;;26.43;11.67;;;6.70;99.90;;;;;;5072146;28;20162;-72
2024/02/02 03:32:44;;;;;;;13.50;4.87;;;6.80;99.90;;;;;;5075695;28;20692;-72
2024/02/02 03:35:10;;;;;;;6.90;2.97;;;6.80;99.90;;;;;;5075737;28;20559;-72
2024/02/02 03:37:35;;;;;;;7.70;3.10;;;6.70;99.90;;;;;;5075547;28;20205;-72
2024/02/02 03:40:01;;;;;;;12.07;4.67;;;6.80;99.90;;;;;;5074391;28;20404;-72
2024/02/02 03:42:27;;;;;;;12.80;4.30;;;6.70;99.90;;;;;;5074440;28;20170;-72
2024/02/02 03:44:52;;;;;;;7.40;3.20;;;6.80;99.90;;;;;;5075624;28;20496;-72
2024/02/02 03:47:18;;;;;;;9.20;4.50;;;6.70;99.90;;;;;;5074011;28;20299;-72
2024/02/02 03:49:44;;;;;;;6.73;3.50;;;6.70;99.90;;;;;;5075580;28;20166;-72
2024/02/02 03:52:09;;;;;;;20.50;7.43;;;6.80;99.90;;;;;;5075348;28;20640;-72
2024/02/02 03:54:35;;;;;;;15.53;4.50;;;6.80;99.90;;;;;;5075411;28;20162;-72
2024/02/02 03:57:01;;;;;;;12.57;4.67;;;6.80;99.90;;;;;;5075114;28;20518;-72
2024/02/02 03:59:27;;;;;;;7.90;3.77;;;6.70;99.90;;;;;;5075493;28;20397;-72
2024/02/02 04:01:52;;;;;;;10.20;5.20;;;6.70;99.90;;;;;;5075747;28;20539;-71
2024/02/02 04:04:18;;;;;;;9.33;3.27;;;6.80;99.90;;;;;;5075278;28;20245;-72
2024/02/02 04:06:44;;;;;;;11.87;3.93;;;6.80;99.90;;;;;;5073993;28;20198;-72
2024/02/02 04:09:10;;;;;;;8.90;4.60;;;6.80;99.90;;;;;;5074931;28;20193;-72
2024/02/02 04:11:36;;;;;;;16.23;4.37;;;6.80;99.90;;;;;;5075150;28;20240;-72
2024/02/02 04:14:02;;;;;;;10.40;4.10;;;6.70;99.90;;;;;;5075153;28;20824;-71
2024/02/02 04:16:28;;;;;;;7.87;3.77;;;6.70;99.90;;;;;;5074923;28;20448;-71
2024/02/02 04:18:53;;;;;;;13.00;3.83;;;6.70;99.90;;;;;;5074890;28;20177;-71
2024/02/02 04:21:19;;;;;;;5.73;3.07;;;6.80;99.90;;;;;;5074887;28;20229;-71
2024/02/02 04:23:44;;;;;;;9.83;4.10;;;6.80;99.90;;;;;;5074898;28;20167;-72
2024/02/02 04:26:10;;;;;;;6.50;3.17;;;6.80;99.90;;;;;;5074905;28;20246;-72
2024/02/02 04:28:35;;;;;;;11.07;2.50;;;6.70;99.90;;;;;;5073348;28;20178;-72
2024/02/02 04:31:01;;;;;;;9.37;4.43;;;6.60;99.90;;;;;;5073260;28;20166;-71
2024/02/02 04:33:26;;;;;;;8.57;3.90;;;6.60;99.90;;;;;;5074583;28;20167;-72
2024/02/02 04:35:52;;;;;;;14.17;3.93;;;6.60;99.90;;;;;;5074221;28;20532;-72
2024/02/02 04:38:18;;;;;;;11.40;3.60;;;6.50;99.90;;;;;;5074266;28;20166;-71
2024/02/02 04:40:45;;;;;;;19.53;3.33;;;6.50;99.90;;;;;;5074571;28;20204;-71
2024/02/02 04:43:10;;;;;;;9.00;4.57;;;6.60;99.90;;;;;;5073084;28;20205;-72
2024/02/02 04:45:36;;;;;;;14.23;4.40;;;6.50;99.90;;;;;;5074257;28;20452;-72
2024/02/02 04:48:03;;;;;;;10.20;4.43;;;6.50;99.90;;;;;;5074015;28;20158;-72
2024/02/02 04:50:28;;;;;;;19.30;4.40;;;6.30;99.90;;;;;;5074293;28;20900;-72
2024/02/02 04:52:54;;;;;;;10.40;3.80;;;6.30;99.90;;;;;;5074247;28;20466;-72
2024/02/02 04:55:19;;;;;;;8.73;3.30;;;6.30;99.90;;;;;;5072950;28;20194;-72
2024/02/02 04:57:45;;;;;;;12.23;5.07;;;6.30;99.90;;;;;;5074068;28;20223;-71
2024/02/02 05:00:12;;;;;;;11.37;4.90;;;6.30;99.90;;;;;;5074110;28;20166;-71
2024/02/02 05:02:37;;;;;;;8.67;4.07;;;6.30;99.90;;;;;;5074220;28;20162;-72
2024/02/02 05:05:05;;;;;;;17.80;3.87;;;6.30;99.90;;;;;;5074111;28;20780;-72
2024/02/02 05:07:31;;;;;;;19.97;4.23;;;6.20;99.90;;;;;;5074039;28;20165;-72
2024/02/02 05:09:56;;;;;;;16.27;3.80;;;6.10;99.90;;;;;;5074177;28;20401;-72
2024/02/02 05:12:22;;;;;;;16.00;4.60;;;6.20;99.90;;;;;;5074076;28;20488;-72
2024/02/02 05:14:49;;;;;;;12.23;5.13;;;6.10;99.90;;;;;;5073683;28;20320;-71
2024/02/02 05:17:14;;;;;;;15.53;5.00;;;6.10;99.90;;;;;;5073602;28;20165;-72
2024/02/02 05:19:40;;;;;;;6.30;3.53;;;6.10;99.90;;;;;;5073950;28;20910;-72
2024/02/02 05:22:05;;;;;;;11.33;4.30;;;6.10;99.90;;;;;;5073858;28;20201;-72
2024/02/02 05:24:31;;;;;;;8.87;3.43;;;6.20;99.90;;;;;;5073787;28;20170;-71
2024/02/02 05:26:56;;;;;;;10.97;3.60;;;6.30;99.90;;;;;;5072360;28;20190;-72
2024/02/02 05:29:22;;;;;;;7.73;3.43;;;6.20;99.90;;;;;;5072068;28;20190;-72
2024/02/02 05:31:47;;;;;;;12.37;4.27;;;6.30;99.90;;;;;;5073811;28;20212;-72
2024/02/02 05:34:13;;;;;;;11.43;4.47;;;6.30;99.90;;;;;;5072154;28;20170;-72
2024/02/02 05:36:39;;;;;;;9.17;3.27;;;6.40;99.90;;;;;;5073299;28;20268;-72
2024/02/02 05:39:04;;;;;;;15.60;4.83;;;6.40;99.90;;;;;;5073170;28;20630;-72
2024/02/02 05:41:30;;;;;;;9.10;3.63;;;6.40;99.90;;;;;;5073283;28;20204;-72
2024/02/02 05:43:55;;;;;;;14.80;3.40;;;6.30;99.90;;;;;;5073236;28;20170;-72
2024/02/02 05:46:21;;;;;;;19.53;4.73;;;6.20;99.90;;;;;;5073539;28;20187;-72
2024/02/02 05:48:46;;;;;;;15.03;5.00;;;6.10;99.90;;;;;;5072882;28;20194;-72
2024/02/02 05:51:12;;;;;;;15.90;4.30;;;6.00;99.90;;;;;;5073244;28;20173;-71
2024/02/02 05:53:37;;;;;;;15.90;3.23;;;6.10;99.90;;;;;;5072559;28;20248;-72
2024/02/02 05:56:03;;;;;;;15.67;3.40;;;6.10;99.90;;;;;;5073016;28;20270;-72
2024/02/02 05:58:29;;;;;;;17.97;5.90;;;6.10;99.90;;;;;;5072893;28;20530;-71
2024/02/02 06:00:55;;;;;;;10.87;3.70;;;6.20;99.90;;;;;;5072541;28;20440;-71
2024/02/02 06:03:20;;;;;;;11.77;2.83;;;6.10;99.90;;;;;;5072926;28;20166;-72
2024/02/02 06:05:46;;;;;;;10.93;3.33;;;6.20;99.90;;;;;;5072980;28;20186;-71
2024/02/02 06:08:13;;;;;;;7.10;3.17;;;6.10;99.90;;;;;;5071439;28;20255;-72
2024/02/02 06:10:42;;;;;;;19.53;5.23;;;6.20;99.90;;;;;;5071552;28;20269;-72
2024/02/02 06:13:08;;;;;;;7.97;3.40;;;6.20;99.90;;;;;;5072755;28;20449;-72
2024/02/02 06:15:34;;;;;;;6.37;3.50;;;6.10;99.90;;;;;;5072750;28;20523;-72
2024/02/02 06:17:59;;;;;;;4.40;2.20;;;6.10;99.90;;;;;;5072468;28;20163;-71
2024/02/02 06:20:25;;;;;;;8.10;2.80;;;6.20;99.90;;;;;;5072421;28;20499;-72
2024/02/02 06:22:51;;;;;;;7.60;2.63;;;6.30;99.90;;;;;;5071391;28;20172;-72
2024/02/02 06:25:17;;;;;;;6.83;3.40;;;6.30;99.90;;;;;;5072534;28;20190;-71
2024/02/02 06:27:43;;;;;;;9.93;3.67;;;6.30;99.90;;;;;;5072305;28;20162;-71
2024/02/02 06:30:09;;;;;;;8.93;3.00;;;6.40;99.90;;;;;;5072501;28;20404;-72
2024/02/02 06:32:39;;;;;;;6.07;2.07;;;6.40;99.90;;;;;;5072340;28;20260;-72
2024/02/02 06:35:05;;;;;;;5.93;2.73;;;6.40;99.90;;;;;;5072438;28;20416;-71
2024/02/02 06:37:31;;;;;;;11.30;3.70;;;6.50;99.90;;;;;;5072475;28;20449;-72
2024/02/02 06:39:57;;;;;;;4.70;2.77;;;6.50;99.90;;;;;;5073426;28;20162;-71
2024/02/02 06:42:26;;;;;;;8.90;3.23;;;6.50;99.90;;;;;;5072236;28;20250;-71
2024/02/02 06:44:54;;;;;;;7.37;2.67;;;6.50;99.90;;;;;;5070941;28;20777;-72
2024/02/02 06:47:20;;;;;;;11.37;3.60;;;6.50;99.90;;;;;;5072055;28;20518;-71
2024/02/02 06:49:46;;;;;;;14.33;3.90;;;6.40;99.90;;;;;;5072164;28;20495;-72
2024/02/02 06:52:13;;;;;;;4.47;3.10;;;6.40;99.90;;;;;;5072058;28;20491;-71
2024/02/02 06:54:39;;;;;;;13.40;3.30;;;6.50;99.90;;;;;;5072135;28;20173;-72
2024/02/02 06:57:05;;;;;;;11.60;4.20;;;6.50;99.90;;;;;;5071783;28;20401;-71
2024/02/02 06:59:30;;;;;;;6.23;3.30;;;6.40;99.90;;;;;;5071855;28;20162;-71
2024/02/02 07:01:57;;;;;;;8.87;5.90;;;6.40;99.90;;;;;;5071911;28;20276;-72
2024/02/02 07:04:23;;;;;;;6.00;4.63;;;6.50;99.90;;;;;;5070499;28;20167;-71
2024/02/02 07:06:48;;;;;;;15.73;5.23;;;6.50;99.90;;;;;;5070010;28;20421;-72
2024/02/02 07:09:21;;;;;;;3.27;2.10;;;6.50;99.90;;;;;;5071842;28;20487;-72
2024/02/02 07:11:56;;;;;;;6.10;2.23;;;6.40;99.90;;;;;;5072045;28;20671;-71
2024/02/02 07:14:44;;;;;;;10.93;2.33;;;6.40;99.90;;;;;;5071928;28;20408;-72
2024/02/02 07:17:34;;;;;;;9.63;2.77;;;6.50;99.90;;;;;;5071692;28;20415;-71
2024/02/02 07:20:03;;;;;;;6.33;2.03;;;6.50;99.90;;;;;;5071974;28;20798;-72
2024/02/02 07:22:39;;;;;;;6.13;2.20;;;6.50;99.90;;;;;;5071676;28;20448;-72
2024/02/02 07:25:11;;;;;;;7.43;2.40;;;6.60;99.90;;;;;;5071878;28;20837;-72
2024/02/02 07:28:02;;;;;;;3.63;2.27;;;6.50;99.90;;;;;;5071576;28;20820;-72
2024/02/02 07:30:45;;;;;;;4.50;2.17;;;6.70;99.90;;;;;;5071610;28;20404;-72
2024/02/02 07:33:16;;;;;;;8.10;2.83;;;6.60;99.90;;;;;;5071576;28;20405;-68
2024/02/02 07:35:41;;;;;;;6.83;2.60;;;6.60;99.90;;;;;;5071453;28;20428;-67
2024/02/02 07:38:13;;;;;;;5.37;2.30;;;6.60;99.90;;;;;;5071387;28;20397;-71
2024/02/02 07:40:55;;;;;;;9.07;2.70;;;6.80;99.90;;;;;;5071826;28;20696;-71
2024/02/02 07:43:20;;;;;;;7.70;2.20;;;6.80;99.90;;;;;;5071466;28;20899;-70
2024/02/02 07:45:46;;;;;;;8.73;1.93;;;6.80;99.90;;;;;;5071470;28;20416;-71
2024/02/02 07:48:11;;;;;;;12.60;2.80;;;6.90;99.90;;;;;;5070134;28;20865;-70
2024/02/02 07:50:37;;;;;;;6.40;2.00;;;6.90;99.90;;;;;;5071616;28;20645;-70
2024/02/02 07:53:03;;;;;;;6.07;2.30;;;7.00;99.90;;;;;;5070362;28;20653;-70
2024/02/02 07:55:28;;;;;;;7.30;1.83;;;7.20;99.90;;;;;;5070181;28;20620;-69
2024/02/02 07:57:54;;;;;;;3.80;2.17;;;7.30;99.90;;;;;;5071173;28;20173;-70
2024/02/02 08:00:19;;;;;;;6.53;1.83;;;7.40;99.90;;;;;;5071497;28;20204;-70
2024/02/02 08:02:45;;;;;;;9.07;2.83;;;7.50;99.90;;;;;;5070132;28;20675;-70
2024/02/02 08:05:10;;;;;;;6.60;2.00;;;7.70;99.90;;;;;;5071394;28;20265;-70
2024/02/02 08:07:36;;;;;;;8.70;2.00;;;7.90;99.90;;;;;;5069920;28;20202;-70
2024/02/02 08:10:03;;;;;;;3.00;1.70;;;8.10;99.90;;;;;;5071631;28;20162;-70
2024/02/02 08:12:28;;;;;;;4.33;1.60;;;8.30;99.90;;;;;;5071354;28;20223;-71
2024/02/02 08:14:54;;;;;;;4.43;3.13;;;8.80;99.90;;;;;;5071113;28;20413;-70
2024/02/02 08:17:19;;;;;;;13.87;2.97;;;9.70;99.90;;;;;;5072943;28;20166;-70
2024/02/02 08:19:45;;;;;;;8.80;1.63;;;10.40;99.90;;;;;;5073717;28;20174;-70
2024/02/02 08:22:10;;;;;;;6.97;2.30;;;11.10;99.90;;;;;;5074609;28;20198;-70
2024/02/02 08:24:36;;;;;;;4.47;2.07;;;12.00;99.90;;;;;;5074540;28;20223;-70
2024/02/02 08:27:02;;;;;;;2.17;1.60;;;12.90;94.60;;;;;;5074507;28;20304;-70
2024/02/02 08:29:28;;;;;;;4.97;1.70;;;13.60;86.20;;;;;;5073322;28;20174;-71
2024/02/02 08:31:53;;;;;;;2.97;1.50;;;14.60;84.00;;;;;;5074834;28;20412;-70
2024/02/02 08:34:19;;;;;;;4.77;2.10;;;15.60;74.30;;;;;;5074683;28;20177;-69
2024/02/02 08:36:45;;;;;;;4.80;2.43;;;16.70;62.80;;;;;;5074614;28;20313;-69
2024/02/02 08:39:10;;;;;;;3.63;2.07;;;17.40;57.30;;;;;;5074475;28;20166;-70
2024/02/02 08:41:37;;;;;;;6.70;2.30;;;18.10;56.50;;;;;;5073138;28;20201;-70
2024/02/02 08:44:20;;;;;;;6.33;2.47;;;17.80;50.10;;;;;;5074511;28;20163;-70
2024/02/02 08:46:48;;;;;;;10.03;2.50;;;16.80;47.70;;;;;;5073125;28;20436;-69
2024/02/02 08:49:29;;;;;;;11.30;2.63;;;16.60;52.30;;;;;;5074173;28;20404;-69
2024/02/02 08:51:54;;;;;;;5.20;2.10;;;17.00;51.00;;;;;;5074474;28;20543;-69
2024/02/02 08:54:33;;;;;;;8.03;2.80;;;17.30;50.40;;;;;;5074459;28;20507;-69
2024/02/02 08:57:23;;;;;;;6.17;1.87;;;16.90;48.20;;;;;;5074267;28;20303;-69
2024/02/02 08:59:52;;;;;;;5.87;2.63;;;16.70;48.20;;;;;;5074191;28;20440;-69
2024/02/02 09:02:55;;;;;;;4.50;2.07;;;16.60;49.20;;;;;;5074126;28;20504;-69
2024/02/02 09:05:27;;;;;;;5.63;1.90;;;16.00;48.20;;;;;;5074543;28;20458;-69
2024/02/02 09:08:25;;;;;;;7.10;2.67;;;15.40;47.30;;;;;;5073949;28;20401;-69
2024/02/02 09:10:59;;;;;;;6.60;2.37;;;15.50;49.30;;;;;;5074025;28;20447;-69
2024/02/02 09:13:30;;;;;;;3.60;2.20;;;15.70;49.20;;;;;;5072682;28;20407;-69
2024/02/02 09:15:56;;;;;;;7.60;2.33;;;15.70;48.00;;;;;;5072539;28;20458;-69
2024/02/02 09:18:33;;;;;;;4.20;1.97;;;15.90;48.20;;;;;;5073607;28;20902;-69
2024/02/02 09:20:59;;;;;;;3.93;2.43;;;16.10;48.10;;;;;;5072189;28;20456;-69
2024/02/02 09:23:26;;;;;;;2.93;1.93;;;17.00;47.80;;;;;;5073428;28;20903;-69
2024/02/02 09:25:51;;;;;;;6.87;2.60;;;18.20;47.60;;;;;;5073407;28;20424;-69
2024/02/02 09:28:29;;;;;;;8.80;2.87;;;19.40;47.40;;;;;;5072594;28;20462;-68
2024/02/02 09:30:57;;;;;;;2.53;2.10;;;19.50;43.50;;;;;;5071985;28;20170;-66
2024/02/02 09:33:32;;;;;;;7.27;2.53;;;20.00;44.10;;;;;;5073545;28;20466;-66
2024/02/02 09:36:05;;;;;;;3.97;2.40;;;20.60;43.40;;;;;;5073409;28;20428;-66
2024/02/02 09:38:31;;;;;;;7.83;2.53;;;20.60;41.70;;;;;;5073227;28;20476;-67
2024/02/02 09:41:02;;;;;;;5.17;2.30;;;20.60;41.30;;;;;;5073312;28;20440;-67
2024/02/02 09:44:06;;;;;;;5.33;2.40;;;20.70;40.50;;;;;;5073245;28;20170;-66
2024/02/02 09:46:51;;;;;;;4.27;2.80;;;20.10;39.30;;;;;;5072825;28;21141;-67
2024/02/02 09:49:36;;;;;;;4.07;2.37;;;19.00;39.90;;;;;;5073073;28;20465;-66
2024/02/02 09:52:30;;;;;;;5.37;2.40;;;18.70;41.00;;;;;;5073280;28;20483;-67
2024/02/02 09:55:01;;;;;;;4.00;2.20;;;18.80;42.10;;;;;;5073080;28;20860;-66
2024/02/02 09:57:37;;;;;;;4.20;2.87;;;19.00;42.70;;;;;;5073122;28;20462;-67
2024/02/02 10:00:29;;;;;;;5.87;2.40;;;19.20;43.30;;;;;;5073224;28;20416;-67
2024/02/02 10:03:03;;;;;;;6.40;3.23;;;19.50;42.70;;;;;;5052850;28;20765;-67
2024/02/02 10:05:51;;;;;;;5.63;2.90;;;19.60;41.70;;;;;;5052860;28;20420;-65
2024/02/02 10:08:46;;;;;;;3.43;2.23;;;19.40;42.40;;;;;;5051977;28;20421;-67
2024/02/02 10:11:22;;;;;;;5.70;2.50;;;19.50;41.40;;;;;;5052608;28;20827;-67
2024/02/02 10:14:14;;;;;;;9.00;2.80;;;19.60;42.00;;;;;;5052502;28;20729;-67
2024/02/02 10:17:02;;;;;;;5.93;2.70;;;20.10;43.20;;;;;;5052436;28;20780;-67
2024/02/02 10:19:45;;;;;;;7.63;2.90;;;20.40;41.40;;;;;;5052122;28;20737;-67
2024/02/02 10:22:18;;;;;;;4.97;2.10;;;20.10;40.80;;;;;;5052378;28;20502;-67
2024/02/02 10:25:02;;;;;;;5.20;2.70;;;20.70;42.10;;;;;;5052453;28;20421;-67
2024/02/02 10:27:56;;;;;;;8.77;2.60;;;21.00;41.00;;;;;;5052375;28;20871;-67
2024/02/02 10:30:39;;;;;;;6.83;2.70;;;21.30;40.40;;;;;;5041554;28;20472;-66
2024/02/02 10:33:24;;;;;;;7.77;2.73;;;20.80;38.90;;;;;;5051065;28;20414;-67
2024/02/02 10:35:53;;;;;;;3.83;2.83;;;20.80;40.30;;;;;;5052102;28;20422;-66
2024/02/02 10:38:33;;;;;;;5.83;2.50;;;20.40;38.70;;;;;;5051876;28;20746;-66
2024/02/02 10:41:47;;;;;;;4.30;2.47;;;20.80;40.40;;;;;;5051854;28;20453;-66
2024/02/02 10:44:36;;;;;;;6.23;3.00;;;21.70;40.80;;;;;;5005376;28;20413;-67
2024/02/02 10:47:27;;;;;;;3.77;2.50;;;23.20;41.80;;;;;;5013498;28;20475;-68
2024/02/02 10:50:02;;;;;;;5.47;2.50;;;25.10;38.60;;;;;;5052201;28;20398;-68
2024/02/02 10:52:56;;;;;;;3.33;2.60;;;25.70;35.60;;;;;;5050709;28;20445;-67
2024/02/02 10:55:53;;;;;;;3.50;2.93;;;25.70;35.40;;;;;;5052047;28;20453;-67
2024/02/02 10:58:38;;;;;;;6.73;3.10;;;25.30;33.60;;;;;;5051844;28;20397;-67
2024/02/02 11:01:22;;;;;;;6.63;2.70;;;25.40;35.00;;;;;;5052025;28;20441;-67
2024/02/02 11:03:54;;;;;;;8.90;2.87;;;26.00;34.70;;;;;;5052243;28;20935;-67
2024/02/02 11:06:48;;;;;;;6.30;2.70;;;25.80;33.50;;;;;;5051851;28;20414;-68
2024/02/02 11:09:29;;;;;;;4.90;2.87;;;25.60;33.00;;;;;;5051723;28;20397;-68
2024/02/02 11:12:06;;;;;;;7.30;2.80;;;26.00;33.80;;;;;;5052041;28;20388;-67
2024/02/02 11:14:41;;;;;;;6.23;2.63;;;27.00;34.00;;;;;;5051815;28;20493;-67
2024/02/02 11:17:09;;;;;;;5.23;2.47;;;28.20;32.80;;;;;;5051482;28;20455;-68
2024/02/02 11:20:09;;;;;;;3.23;2.23;;;29.20;31.90;;;;;;5051710;28;20405;-68
2024/02/02 11:22:54;;;;;;;5.63;2.40;;;30.00;31.30;;;;;;5051605;28;21231;-68
2024/02/02 11:25:29;;;;;;;4.03;2.33;;;30.40;29.80;;;;;;5051819;28;20785;-68
2024/02/02 11:28:07;;;;;;;5.90;2.60;;;30.60;29.10;;;;;;5051579;28;20401;-68
2024/02/02 11:30:43;;;;;;;5.10;2.53;;;30.80;28.00;;;;;;5051682;28;20405;-68
2024/02/02 11:33:37;;;;;;;7.43;2.67;;;30.20;27.30;;;;;;5050366;28;20505;-68
2024/02/02 11:36:16;;;;;;;3.97;2.50;;;30.20;27.70;;;;;;5029183;28;20437;-68
2024/02/02 11:38:54;;;;;;;4.70;2.10;;;30.40;29.00;;;;;;5051395;28;20756;-68
2024/02/02 11:41:22;;;;;;;8.60;2.50;;;30.30;28.30;;;;;;5051541;28;20982;-68
2024/02/02 11:43:49;;;;;;;4.87;2.47;;;29.40;27.60;;;;;;5051550;28;20492;-68
2024/02/02 11:46:21;;;;;;;6.53;3.17;;;28.70;27.70;;;;;;5051492;28;20457;-68
2024/02/02 11:48:52;;;;;;;9.07;2.80;;;28.10;28.60;;;;;;5051264;28;20406;-68
2024/02/02 11:51:20;;;;;;;10.10;2.40;;;28.40;29.40;;;;;;5051962;28;20405;-68
2024/02/02 11:54:01;;;;;;;3.63;2.17;;;28.50;28.50;;;;;;5055353;28;20463;-68
2024/02/02 11:56:49;;;;;;;9.20;3.57;;;28.30;29.30;;;;;;5055421;28;20419;-68
2024/02/02 11:59:27;;;;;;;9.57;3.60;;;27.10;28.50;;;;;;5055039;28;20444;-68
2024/02/02 12:02:46;;;;;;;5.80;3.30;;;25.10;29.70;;;;;;5055224;28;20835;-68
2024/02/02 12:05:20;;;;;;;5.63;1.90;;;24.20;31.50;;;;;;4993416;28;20432;-68
2024/02/02 12:08:15;;;;;;;3.90;2.30;;;24.40;33.20;;;;;;5053087;28;20405;-68
2024/02/02 12:10:43;;;;;;;4.63;3.83;;;23.10;33.00;;;;;;5055130;28;20908;-67
2024/02/02 12:13:16;;;;;;;5.30;3.27;;;22.70;34.40;;;;;;5055006;28;20413;-67
2024/02/02 12:15:42;;;;;;;4.30;3.30;;;22.40;35.10;;;;;;5055001;28;20936;-68
2024/02/02 12:18:08;;;;;;;8.70;3.00;;;22.20;35.50;;;;;;5054705;28;20409;-68
2024/02/02 12:20:33;;;;;;;5.47;3.10;;;22.50;36.10;;;;;;5054840;28;20593;-68
2024/02/02 12:22:59;;;;;;;3.50;2.90;;;22.60;36.00;;;;;;5054923;28;20242;-68
2024/02/02 12:25:25;;;;;;;5.70;2.80;;;22.80;35.40;;;;;;5054825;28;20801;-68
2024/02/02 12:27:51;;;;;;;5.60;3.43;;;23.00;36.20;;;;;;5054559;28;20631;-67
2024/02/02 12:30:17;;;;;;;7.63;2.90;;;22.70;35.30;;;;;;5054854;28;20795;-68
2024/02/02 12:32:58;;;;;;;7.80;4.07;;;22.50;35.20;;;;;;5053523;28;20445;-68
2024/02/02 12:35:25;;;;;;;6.10;2.60;;;22.90;35.60;;;;;;5054563;28;20194;-68
2024/02/02 12:37:52;;;;;;;5.43;3.53;;;22.30;35.40;;;;;;5054424;28;20440;-67
2024/02/02 12:40:23;;;;;;;7.00;3.43;;;21.80;36.10;;;;;;5054587;28;20956;-67
2024/02/02 12:42:50;;;;;;;5.37;2.90;;;21.30;36.60;;;;;;5054436;28;20397;-67
2024/02/02 12:45:16;;;;;;;7.30;3.27;;;21.50;37.60;;;;;;5054425;28;20508;-66
2024/02/02 12:47:42;;;;;;;4.00;2.90;;;21.00;37.30;;;;;;5054206;28;20404;-68
2024/02/02 12:50:15;;;;;;;3.70;2.93;;;21.10;38.30;;;;;;5054332;28;20394;-66
2024/02/02 12:52:44;;;;;;;4.93;3.40;;;21.50;38.00;;;;;;5054353;28;20927;-67
2024/02/02 12:55:11;;;;;;;4.40;3.20;;;21.90;37.30;;;;;;5054302;28;20472;-67
2024/02/02 12:57:36;;;;;;;6.27;3.57;;;22.40;38.20;;;;;;5053908;28;20405;-67
2024/02/02 13:00:03;;;;;;;4.23;2.70;;;23.90;38.30;;;;;;5054155;28;20851;-67
2024/02/02 13:02:29;;;;;;;7.83;4.43;;;25.90;37.30;;;;;;5053423;28;20567;-67
2024/02/02 13:04:56;;;;;;;8.67;3.63;;;27.30;34.50;;;;;;5053395;28;20401;-68